createdAt,value
2019-02-19T00:01:15.069Z,52.23
2019-02-19T00:04:17.335Z,52.07
2019-02-19T00:07:19.395Z,50.77
2019-02-19T00:10:21.602Z,54.77
2019-02-19T00:13:23.701Z,58.33
2019-02-19T00:16:26.007Z,52.20
2019-02-19T00:19:28.254Z,57.87
2019-02-19T00:22:30.371Z,51.23
2019-02-19T00:25:32.524Z,46.37
2019-02-19T00:28:34.864Z,49.57
2019-02-19T00:31:36.963Z,59.50
2019-02-19T00:34:39.194Z,54.70
2019-02-19T00:37:41.300Z,52.73
2019-02-19T00:40:43.430Z,52.23
2019-02-19T00:43:46.986Z,50.70
2019-02-19T00:46:51.140Z,45.37
2019-02-19T00:53:32.430Z,48.30
2019-02-19T01:11:06.029Z,53.67
2019-02-19T01:14:08.241Z,50.67
2019-02-19T01:17:13.778Z,47.80
2019-02-19T01:20:15.914Z,49.80
2019-02-19T01:23:18.315Z,44.70
2019-02-19T01:26:20.494Z,52.63
2019-02-19T01:29:23.415Z,46.13
2019-02-19T01:32:25.465Z,53.50
2019-02-19T01:35:27.695Z,48.93
2019-02-19T01:38:29.798Z,43.87
2019-02-19T01:41:31.890Z,52.17
2019-02-19T01:44:33.932Z,49.27
2019-02-19T01:47:36.078Z,49.50
2019-02-19T01:50:38.105Z,39.47
2019-02-19T01:53:40.226Z,40.87
2019-02-19T01:56:44.274Z,52.50
2019-02-19T01:59:47.272Z,45.37
2019-02-19T02:02:49.297Z,50.63
2019-02-19T02:05:51.514Z,44.77
2019-02-19T02:08:53.711Z,47.60
2019-02-19T02:11:55.961Z,48.27
2019-02-19T02:14:58.306Z,43.23
2019-02-19T02:18:01.098Z,62.20
2019-02-19T02:31:56.806Z,47.03
2019-02-19T02:34:59.646Z,42.40
2019-02-19T02:38:01.745Z,51.63
2019-02-19T02:41:05.829Z,51.93
2019-02-19T02:44:07.896Z,45.50
2019-02-19T02:47:10.099Z,49.10
2019-02-19T02:50:12.490Z,47.40
2019-02-19T02:53:15.866Z,46.47
2019-02-19T02:56:18.060Z,48.83
2019-02-19T02:59:20.009Z,50.47
2019-02-19T03:02:22.117Z,44.87
2019-02-19T03:05:25.339Z,47.63
2019-02-19T03:08:27.520Z,42.03
2019-02-19T03:11:29.606Z,44.97
2019-02-19T03:14:31.766Z,52.53
2019-02-19T03:17:33.789Z,44.70
2019-02-19T03:20:36.436Z,45.27
2019-02-19T03:27:15.840Z,45.90
2019-02-19T03:30:18.041Z,40.87
2019-02-19T03:33:20.443Z,51.53
2019-02-19T03:36:22.735Z,38.13
2019-02-19T03:39:24.808Z,37.73
2019-02-19T03:42:26.942Z,39.80
2019-02-19T03:45:29.212Z,46.37
2019-02-19T03:48:31.290Z,42.17
2019-02-19T03:51:33.667Z,47.00
2019-02-19T03:54:35.724Z,43.47
2019-02-19T03:57:38.501Z,46.03
2019-02-19T04:00:40.636Z,42.67
2019-02-19T04:03:42.803Z,51.13
2019-02-19T04:06:44.919Z,41.27
2019-02-19T04:09:47.132Z,50.57
2019-02-19T04:12:49.348Z,48.10
2019-02-19T04:15:53.339Z,49.37
2019-02-19T04:18:56.206Z,41.50
2019-02-19T04:21:58.577Z,38.57
2019-02-19T04:25:01.040Z,46.67
2019-02-19T04:28:04.998Z,40.10
2019-02-19T04:31:07.140Z,42.50
2019-02-19T04:34:09.141Z,40.00
2019-02-19T04:37:11.953Z,46.93
2019-02-19T04:40:14.040Z,43.93
2019-02-19T04:43:17.156Z,47.83
2019-02-19T04:46:19.190Z,50.47
2019-02-19T04:49:21.202Z,48.43
2019-02-19T04:52:23.310Z,45.97
2019-02-19T04:55:25.310Z,48.97
2019-02-19T04:58:27.182Z,53.50
2019-02-19T05:01:29.255Z,49.07
2019-02-19T05:04:31.236Z,44.77
2019-02-19T05:07:33.180Z,47.50
2019-02-19T05:10:35.172Z,45.63
2019-02-19T05:13:37.133Z,52.87
2019-02-19T05:16:41.040Z,42.10
2019-02-19T05:19:42.952Z,40.87
2019-02-19T05:22:45.289Z,45.30
2019-02-19T05:25:47.235Z,42.60
2019-02-19T05:28:49.259Z,44.67
2019-02-19T05:31:51.295Z,44.67
2019-02-19T05:34:53.444Z,45.43
2019-02-19T05:37:55.745Z,42.10
2019-02-19T05:40:57.715Z,45.70
2019-02-19T05:43:59.634Z,41.43
2019-02-19T05:47:01.482Z,41.00
2019-02-19T05:50:05.673Z,42.77
2019-02-19T05:53:07.661Z,46.37
2019-02-19T05:56:09.629Z,47.50
2019-02-19T05:59:11.500Z,43.60
2019-02-19T06:02:13.453Z,37.50
2019-02-19T06:05:15.405Z,42.73
2019-02-19T06:08:17.356Z,43.87
2019-02-19T06:11:19.244Z,45.53
2019-02-19T06:14:21.121Z,47.77
2019-02-19T06:17:23.074Z,46.77
2019-02-19T06:20:25.455Z,55.47
2019-02-19T06:23:31.643Z,53.60
2019-02-19T06:26:34.534Z,45.90
2019-02-19T06:29:36.502Z,50.90
2019-02-19T06:32:38.553Z,52.33
2019-02-19T06:35:40.391Z,48.23
2019-02-19T06:38:42.315Z,50.90
2019-02-19T06:41:44.190Z,40.93
2019-02-19T06:44:46.078Z,51.80
2019-02-19T06:47:47.993Z,53.07
2019-02-19T06:50:49.902Z,44.27
2019-02-19T06:53:52.154Z,41.07
2019-02-19T06:56:54.240Z,41.97
2019-02-19T06:59:56.146Z,38.03
2019-02-19T07:03:00.006Z,39.37
2019-02-19T07:06:01.946Z,77.57
2019-02-19T07:09:04.753Z,103.43
2019-02-19T07:12:07.871Z,114.47
2019-02-19T07:15:09.756Z,124.47
2019-02-19T07:18:12.037Z,101.97
2019-02-19T07:21:13.893Z,75.00
2019-02-19T07:24:16.144Z,62.27
2019-02-19T07:27:18.063Z,50.27
2019-02-19T07:30:20.171Z,45.03
2019-02-19T07:33:22.087Z,43.87
2019-02-19T07:36:23.958Z,48.33
2019-02-19T07:39:26.156Z,47.10
2019-02-19T07:42:28.039Z,61.87
2019-02-19T07:45:30.844Z,77.20
2019-02-19T07:48:32.729Z,75.37
2019-02-19T07:51:34.645Z,75.07
2019-02-19T07:54:36.825Z,57.27
2019-02-19T07:57:38.723Z,52.43
2019-02-19T08:00:40.703Z,53.13
2019-02-19T08:03:42.641Z,51.53
2019-02-19T08:06:45.624Z,52.57
2019-02-19T08:09:47.497Z,47.47
2019-02-19T08:12:49.526Z,44.77
2019-02-19T08:15:51.431Z,39.07
2019-02-19T08:18:53.340Z,35.70
2019-02-19T08:21:55.272Z,40.17
2019-02-19T08:24:57.238Z,39.30
2019-02-19T08:27:59.213Z,39.03
2019-02-19T08:31:01.147Z,36.60
2019-02-19T08:34:03.155Z,42.20
2019-02-19T08:37:05.049Z,38.37
2019-02-19T08:40:08.486Z,42.13
2019-02-19T08:43:10.426Z,42.67
2019-02-19T08:46:12.274Z,47.90
2019-02-19T08:49:14.274Z,44.57
2019-02-19T08:52:16.258Z,36.80
2019-02-19T08:55:18.380Z,35.10
2019-02-19T08:58:20.304Z,31.67
2019-02-19T09:01:22.209Z,45.67
2019-02-19T09:04:24.114Z,56.03
2019-02-19T09:07:26.045Z,56.83
2019-02-19T09:10:27.980Z,56.87
2019-02-19T09:13:29.909Z,62.90
2019-02-19T09:16:31.842Z,65.00
2019-02-19T09:19:33.842Z,79.03
2019-02-19T09:22:35.732Z,53.63
2019-02-19T09:25:37.762Z,45.80
2019-02-19T09:28:39.674Z,46.37
2019-02-19T09:31:41.538Z,47.60
2019-02-19T09:34:43.459Z,42.07
2019-02-19T09:37:45.421Z,36.83
2019-02-19T09:40:47.323Z,41.97
2019-02-19T09:43:49.301Z,43.17
2019-02-19T09:46:51.196Z,41.90
2019-02-19T09:49:53.141Z,39.43
2019-02-19T09:52:59.990Z,35.60
2019-02-19T09:55:59.752Z,39.07
2019-02-19T09:59:01.715Z,40.80
2019-02-19T10:02:03.628Z,38.13
2019-02-19T10:05:09.097Z,35.97
2019-02-19T10:08:11.099Z,39.10
2019-02-19T10:11:13.127Z,38.63
2019-02-19T10:14:15.127Z,40.47
2019-02-19T10:17:17.024Z,40.27
2019-02-19T10:20:18.968Z,36.47
2019-02-19T10:23:20.872Z,37.03
2019-02-19T10:26:23.363Z,37.73
2019-02-19T10:29:25.313Z,39.20
2019-02-19T10:32:27.297Z,27.40
2019-02-19T10:35:29.285Z,33.27
2019-02-19T10:38:31.246Z,31.30
2019-02-19T10:41:33.180Z,35.87
2019-02-19T10:44:35.112Z,29.90
2019-02-19T10:47:37.031Z,33.37
2019-02-19T10:50:38.987Z,25.27
2019-02-19T10:53:40.959Z,28.63
2019-02-19T10:56:43.013Z,27.37
2019-02-19T10:59:44.954Z,29.73
2019-02-19T11:02:46.941Z,34.13
2019-02-19T11:05:48.879Z,25.23
2019-02-19T11:08:50.925Z,29.53
2019-02-19T11:11:52.830Z,31.73
2019-02-19T11:14:54.792Z,28.03
2019-02-19T11:17:56.690Z,26.70
2019-02-19T11:20:58.647Z,27.67
2019-02-19T11:24:00.668Z,30.67
2019-02-19T11:27:02.702Z,39.10
2019-02-19T11:30:08.218Z,31.90
2019-02-19T11:33:10.173Z,31.80
2019-02-19T11:36:12.125Z,36.07
2019-02-19T11:39:14.241Z,34.63
2019-02-19T11:42:16.121Z,37.90
2019-02-19T11:45:18.633Z,33.30
2019-02-19T11:48:20.558Z,36.00
2019-02-19T11:51:22.507Z,42.77
2019-02-19T11:54:24.435Z,34.53
2019-02-19T11:57:26.539Z,37.60
2019-02-19T12:00:30.349Z,35.67
2019-02-19T12:03:32.322Z,37.57
2019-02-19T12:06:34.216Z,37.53
2019-02-19T12:09:36.203Z,38.10
2019-02-19T12:12:38.131Z,33.53
2019-02-19T12:15:40.201Z,34.70
2019-02-19T12:18:46.305Z,30.97
2019-02-19T12:21:45.985Z,30.23
2019-02-19T12:24:47.902Z,28.53
2019-02-19T12:27:49.901Z,31.23
2019-02-19T12:30:51.838Z,35.07
2019-02-19T12:33:54.029Z,32.50
2019-02-19T12:36:55.964Z,28.73
2019-02-19T12:39:57.883Z,28.90
2019-02-19T12:42:59.834Z,30.20
2019-02-19T12:46:01.912Z,33.10
2019-02-19T12:49:05.315Z,32.53
2019-02-19T12:52:07.234Z,33.00
2019-02-19T12:55:09.832Z,31.10
2019-02-19T12:58:11.914Z,32.17
2019-02-19T13:01:13.836Z,30.33
2019-02-19T13:04:15.798Z,37.43
2019-02-19T13:07:17.770Z,35.77
2019-02-19T13:10:19.795Z,38.33
2019-02-19T13:13:21.761Z,35.03
2019-02-19T13:16:23.925Z,32.37
2019-02-19T13:19:25.919Z,30.23
2019-02-19T13:22:27.894Z,29.40
2019-02-19T13:25:29.802Z,34.67
2019-02-19T13:28:31.969Z,30.83
2019-02-19T13:31:33.895Z,32.27
2019-02-19T13:34:36.532Z,33.10
2019-02-19T13:37:38.512Z,36.50
2019-02-19T13:40:40.400Z,35.43
2019-02-19T13:43:42.344Z,44.47
2019-02-19T13:46:44.279Z,31.30
2019-02-19T13:49:46.181Z,36.53
2019-02-19T13:52:52.953Z,41.33
2019-02-19T13:55:56.687Z,37.93
2019-02-19T13:58:58.780Z,43.13
2019-02-19T14:02:00.748Z,39.00
2019-02-19T14:05:02.925Z,34.87
2019-02-19T14:08:14.026Z,50.53
2019-02-19T14:11:09.157Z,54.00
2019-02-19T14:14:12.983Z,45.43
2019-02-19T14:17:15.286Z,43.63
2019-02-19T14:20:24.924Z,42.97
2019-02-19T14:23:45.543Z,36.73
2019-02-19T14:26:58.175Z,41.87
2019-02-19T14:30:05.070Z,38.57
2019-02-19T14:33:08.979Z,41.83
2019-02-19T14:36:25.667Z,50.13
2019-02-19T14:39:46.136Z,39.47
2019-02-19T14:42:55.846Z,41.00
2019-02-19T14:46:02.651Z,41.53
2019-02-19T14:49:09.158Z,46.20
2019-02-19T14:52:29.792Z,43.53
2019-02-19T14:55:36.022Z,45.50
2019-02-19T14:58:52.214Z,45.30
2019-02-19T15:02:05.198Z,46.73
2019-02-19T15:05:15.705Z,46.30
2019-02-19T15:08:31.542Z,49.03
2019-02-19T15:11:52.196Z,51.53
2019-02-19T15:14:58.623Z,48.57
2019-02-19T15:18:02.705Z,51.17
2019-02-19T15:21:07.504Z,47.83
2019-02-19T15:24:23.721Z,44.33
2019-02-19T15:27:30.438Z,51.77
2019-02-19T15:30:46.336Z,50.77
2019-02-19T15:34:07.377Z,51.27
2019-02-19T15:37:11.849Z,52.63
2019-02-19T15:40:18.603Z,59.53
2019-02-19T15:43:31.551Z,54.10
2019-02-19T15:46:41.322Z,56.17
2019-02-19T15:49:51.236Z,51.57
2019-02-19T15:52:57.532Z,48.93
2019-02-19T15:56:01.270Z,52.83
2019-02-19T15:59:05.136Z,53.37
2019-02-19T16:02:18.186Z,53.73
2019-02-19T16:05:31.111Z,59.10
2019-02-19T16:08:36.118Z,60.00
2019-02-19T16:11:40.012Z,61.80
2019-02-19T16:15:00.720Z,54.57
2019-02-19T16:18:25.078Z,56.13
2019-02-19T16:21:34.873Z,69.50
2019-02-19T16:24:38.646Z,66.90
2019-02-19T16:27:48.280Z,86.90
2019-02-19T16:30:59.187Z,101.03
2019-02-19T16:34:15.090Z,112.27
2019-02-19T16:37:19.955Z,104.23
2019-02-19T16:40:25.223Z,91.50
2019-02-19T16:43:36.833Z,94.23
2019-02-19T16:46:49.251Z,86.87
2019-02-19T16:50:07.600Z,41.73
2019-02-19T16:53:27.497Z,34.67
2019-02-19T16:56:31.472Z,36.53
2019-02-19T16:59:44.288Z,34.53
2019-02-19T17:02:57.226Z,33.50
2019-02-19T17:06:01.131Z,40.60
2019-02-19T17:09:08.091Z,37.50
2019-02-19T17:12:20.056Z,36.57
2019-02-19T17:15:41.744Z,36.37
2019-02-19T17:18:45.563Z,28.83
2019-02-19T17:21:52.071Z,25.67
2019-02-19T17:25:12.903Z,126.37
2019-02-19T17:28:22.834Z,56.73
2019-02-19T17:31:26.637Z,27.73
2019-02-19T17:34:48.263Z,29.17
2019-02-19T17:37:52.027Z,50.00
2019-02-19T17:40:56.113Z,144.87
2019-02-19T17:44:00.192Z,78.57
2019-02-19T17:47:19.765Z,39.97
2019-02-19T17:50:38.220Z,31.93
2019-02-19T17:53:41.649Z,27.60
2019-02-19T17:56:54.047Z,23.40
2019-02-19T18:00:04.094Z,22.07
2019-02-19T18:03:17.132Z,17.67
2019-02-19T18:06:26.706Z,16.43
2019-02-19T18:09:48.122Z,18.83
2019-02-19T18:12:58.605Z,13.73
2019-02-19T18:16:20.829Z,10.63
2019-02-19T18:19:22.820Z,12.17
2019-02-19T18:22:24.839Z,6.83
2019-02-19T18:25:28.078Z,4.33
2019-02-19T18:28:30.004Z,5.63
2019-02-19T18:31:32.007Z,23.20
2019-02-19T18:34:34.635Z,11.70
2019-02-19T18:37:37.513Z,12.33
2019-02-19T18:40:39.394Z,10.40
2019-02-19T18:43:44.903Z,9.17
2019-02-19T18:46:47.535Z,7.73
2019-02-19T18:49:50.539Z,9.40
2019-02-19T18:52:52.483Z,4.47
2019-02-19T18:55:54.850Z,8.93
2019-02-19T18:58:58.550Z,9.23
2019-02-19T19:02:01.904Z,10.40
2019-02-19T19:05:06.026Z,9.90
2019-02-19T19:08:08.509Z,12.47
2019-02-19T19:11:10.531Z,18.60
2019-02-19T19:14:12.525Z,25.57
2019-02-19T19:17:16.201Z,25.07
2019-02-19T19:20:19.130Z,19.87
2019-02-19T19:23:21.680Z,23.00
2019-02-19T19:26:25.425Z,15.90
2019-02-19T19:29:29.163Z,14.63
2019-02-19T19:32:31.518Z,13.00
2019-02-19T19:35:35.281Z,20.30
2019-02-19T19:38:39.414Z,14.17
2019-02-19T19:41:41.602Z,14.27
2019-02-19T19:44:43.659Z,18.23
2019-02-19T19:47:46.069Z,19.37
2019-02-19T19:50:49.445Z,20.73
2019-02-19T19:53:53.139Z,26.00
2019-02-19T19:56:55.144Z,21.40
2019-02-19T19:59:57.215Z,22.20
2019-02-19T20:03:00.027Z,25.23
2019-02-19T20:06:06.330Z,30.60
2019-02-19T20:09:10.718Z,29.40
2019-02-19T20:12:14.677Z,30.50
2019-02-19T20:15:16.709Z,28.47
2019-02-19T20:18:20.989Z,29.87
2019-02-19T20:21:26.706Z,25.17
2019-02-19T20:24:29.586Z,27.83
2019-02-19T20:27:31.519Z,28.03
2019-02-19T20:30:37.114Z,29.77
2019-02-19T20:33:39.366Z,29.53
2019-02-19T20:36:43.483Z,27.47
2019-02-19T20:39:47.867Z,24.20
2019-02-19T20:42:50.487Z,24.80
2019-02-19T20:45:53.909Z,29.00
2019-02-19T20:48:55.912Z,26.37
2019-02-19T20:51:58.075Z,27.97
2019-02-19T20:55:04.739Z,29.30
2019-02-19T20:58:08.639Z,31.70
2019-02-19T21:01:10.662Z,28.80
2019-02-19T21:04:12.568Z,36.33
2019-02-19T21:07:18.499Z,34.27
2019-02-19T21:10:20.411Z,40.13
2019-02-19T21:13:22.722Z,51.73
2019-02-19T21:16:25.236Z,41.90
2019-02-19T21:19:27.133Z,37.13
2019-02-19T21:22:33.605Z,31.53
2019-02-19T21:25:37.459Z,35.60
2019-02-19T21:28:39.607Z,36.83
2019-02-19T21:31:43.119Z,31.03
2019-02-19T21:34:45.077Z,30.80
2019-02-19T21:37:46.990Z,32.10
2019-02-19T21:40:48.984Z,32.80
2019-02-19T21:43:52.488Z,35.70
2019-02-19T21:46:56.306Z,40.77
2019-02-19T21:49:58.240Z,56.37
2019-02-19T21:53:00.197Z,57.90
2019-02-19T21:56:02.115Z,58.13
2019-02-19T21:59:04.057Z,42.93
2019-02-19T22:02:05.961Z,50.87
2019-02-19T22:05:07.970Z,60.70
2019-02-19T22:08:11.212Z,57.53
2019-02-19T22:11:13.236Z,54.90
2019-02-19T22:14:15.202Z,44.53
2019-02-19T22:17:17.247Z,48.33
2019-02-19T22:20:36.350Z,50.33
2019-02-19T22:23:38.259Z,38.30
2019-02-19T22:26:40.282Z,49.07
2019-02-19T22:29:42.283Z,56.13
2019-02-19T22:32:44.487Z,55.73
2019-02-19T22:35:46.409Z,58.07
2019-02-19T22:38:48.382Z,45.57
2019-02-19T22:41:50.345Z,40.13
2019-02-19T22:44:52.351Z,42.47
2019-02-19T22:47:54.317Z,40.33
2019-02-19T22:50:56.269Z,36.43
2019-02-19T22:54:00.029Z,36.57
2019-02-19T22:57:01.943Z,34.50
2019-02-19T23:00:12.085Z,37.57
2019-02-19T23:03:20.625Z,41.10
2019-02-19T23:06:22.906Z,41.50
2019-02-19T23:09:24.926Z,36.97
2019-02-19T23:12:26.946Z,38.30
2019-02-19T23:15:28.906Z,41.63
2019-02-19T23:18:32.320Z,37.80
2019-02-19T23:21:34.244Z,37.90
2019-02-19T23:24:36.139Z,44.97
2019-02-19T23:27:38.066Z,42.23
2019-02-19T23:30:40.021Z,51.57
2019-02-19T23:33:42.057Z,54.00
2019-02-19T23:36:45.833Z,48.33
2019-02-19T23:39:47.715Z,43.57
2019-02-19T23:42:50.641Z,45.43
2019-02-19T23:45:52.551Z,43.30
2019-02-19T23:48:54.503Z,38.63
2019-02-19T23:51:56.448Z,45.73
2019-02-19T23:54:58.395Z,41.03
2019-02-19T23:58:00.298Z,40.03
